sensor_id;sensor_type;location;lat;lon;timestamp;P1;durP1;ratioP1;P2;durP2;ratioP2
64199;SDS011;50516;52.272;5.136;2023-04-25T00:01:08;14.95;;;4.20;;
64199;SDS011;50516;52.272;5.136;2023-04-25T00:03:34;17.05;;;5.10;;
64199;SDS011;50516;52.272;5.136;2023-04-25T00:06:00;13.70;;;5.13;;
64199;SDS011;50516;52.272;5.136;2023-04-25T00:08:29;19.13;;;4.78;;
64199;SDS011;50516;52.272;5.136;2023-04-25T00:10:55;18.75;;;4.38;;
64199;SDS011;50516;52.272;5.136;2023-04-25T00:13:21;18.42;;;4.93;;
64199;SDS011;50516;52.272;5.136;2023-04-25T00:15:46;15.70;;;4.32;;
64199;SDS011;50516;52.272;5.136;2023-04-25T00:18:13;15.90;;;4.07;;
64199;SDS011;50516;52.272;5.136;2023-04-25T00:20:39;17.20;;;4.43;;
64199;SDS011;50516;52.272;5.136;2023-04-25T00:23:04;25.75;;;5.70;;
64199;SDS011;50516;52.272;5.136;2023-04-25T00:25:30;24.70;;;4.30;;
64199;SDS011;50516;52.272;5.136;2023-04-25T00:27:55;15.10;;;4.15;;
64199;SDS011;50516;52.272;5.136;2023-04-25T00:30:20;14.32;;;4.22;;
64199;SDS011;50516;52.272;5.136;2023-04-25T00:32:46;20.02;;;4.60;;
64199;SDS011;50516;52.272;5.136;2023-04-25T00:35:11;23.17;;;6.13;;
64199;SDS011;50516;52.272;5.136;2023-04-25T00:37:36;15.70;;;5.40;;
64199;SDS011;50516;52.272;5.136;2023-04-25T00:40:03;18.50;;;4.25;;
64199;SDS011;50516;52.272;5.136;2023-04-25T00:42:31;16.00;;;4.35;;
64199;SDS011;50516;52.272;5.136;2023-04-25T00:44:56;18.85;;;4.53;;
64199;SDS011;50516;52.272;5.136;2023-04-25T00:47:23;15.18;;;4.53;;
64199;SDS011;50516;52.272;5.136;2023-04-25T00:49:49;21.67;;;4.57;;
64199;SDS011;50516;52.272;5.136;2023-04-25T00:52:14;16.13;;;5.10;;
64199;SDS011;50516;52.272;5.136;2023-04-25T00:54:40;19.90;;;4.57;;
64199;SDS011;50516;52.272;5.136;2023-04-25T00:57:05;27.48;;;4.38;;
64199;SDS011;50516;52.272;5.136;2023-04-25T00:59:30;20.08;;;3.95;;
64199;SDS011;50516;52.272;5.136;2023-04-25T01:01:56;16.95;;;4.78;;
64199;SDS011;50516;52.272;5.136;2023-04-25T01:04:22;17.35;;;4.43;;
64199;SDS011;50516;52.272;5.136;2023-04-25T01:06:47;22.08;;;5.07;;
64199;SDS011;50516;52.272;5.136;2023-04-25T01:09:13;22.38;;;4.07;;
64199;SDS011;50516;52.272;5.136;2023-04-25T01:11:39;17.02;;;3.78;;
64199;SDS011;50516;52.272;5.136;2023-04-25T01:14:05;13.88;;;3.92;;
64199;SDS011;50516;52.272;5.136;2023-04-25T01:16:31;17.17;;;4.00;;
64199;SDS011;50516;52.272;5.136;2023-04-25T01:18:57;20.20;;;4.18;;
64199;SDS011;50516;52.272;5.136;2023-04-25T01:21:24;18.75;;;4.80;;
64199;SDS011;50516;52.272;5.136;2023-04-25T01:23:52;17.08;;;4.25;;
64199;SDS011;50516;52.272;5.136;2023-04-25T01:26:18;20.45;;;3.72;;
64199;SDS011;50516;52.272;5.136;2023-04-25T01:28:46;16.20;;;4.75;;
64199;SDS011;50516;52.272;5.136;2023-04-25T01:31:12;16.88;;;4.18;;
64199;SDS011;50516;52.272;5.136;2023-04-25T01:33:37;17.45;;;4.50;;
64199;SDS011;50516;52.272;5.136;2023-04-25T01:36:03;14.30;;;4.00;;
64199;SDS011;50516;52.272;5.136;2023-04-25T01:38:29;16.92;;;4.88;;
64199;SDS011;50516;52.272;5.136;2023-04-25T01:40:54;17.75;;;4.63;;
64199;SDS011;50516;52.272;5.136;2023-04-25T01:43:21;13.77;;;3.72;;
64199;SDS011;50516;52.272;5.136;2023-04-25T01:45:46;17.80;;;3.83;;
64199;SDS011;50516;52.272;5.136;2023-04-25T01:48:13;14.38;;;4.25;;
64199;SDS011;50516;52.272;5.136;2023-04-25T01:50:39;12.00;;;3.75;;
64199;SDS011;50516;52.272;5.136;2023-04-25T01:53:06;15.98;;;3.47;;
64199;SDS011;50516;52.272;5.136;2023-04-25T01:55:31;16.63;;;4.05;;
64199;SDS011;50516;52.272;5.136;2023-04-25T01:57:57;17.92;;;4.25;;
64199;SDS011;50516;52.272;5.136;2023-04-25T02:00:23;16.73;;;4.95;;
64199;SDS011;50516;52.272;5.136;2023-04-25T02:02:48;15.55;;;4.00;;
64199;SDS011;50516;52.272;5.136;2023-04-25T02:05:15;9.35;;;3.35;;
64199;SDS011;50516;52.272;5.136;2023-04-25T02:07:41;18.70;;;4.43;;
64199;SDS011;50516;52.272;5.136;2023-04-25T02:10:06;11.73;;;4.03;;
64199;SDS011;50516;52.272;5.136;2023-04-25T02:12:32;14.63;;;3.40;;
64199;SDS011;50516;52.272;5.136;2023-04-25T02:14:57;17.67;;;5.43;;
64199;SDS011;50516;52.272;5.136;2023-04-25T02:17:22;14.52;;;4.18;;
64199;SDS011;50516;52.272;5.136;2023-04-25T02:19:48;13.65;;;3.67;;
64199;SDS011;50516;52.272;5.136;2023-04-25T02:22:13;14.55;;;3.88;;
64199;SDS011;50516;52.272;5.136;2023-04-25T02:24:39;15.13;;;4.15;;
64199;SDS011;50516;52.272;5.136;2023-04-25T02:27:04;17.40;;;4.05;;
64199;SDS011;50516;52.272;5.136;2023-04-25T02:29:29;10.93;;;3.45;;
64199;SDS011;50516;52.272;5.136;2023-04-25T02:31:55;15.52;;;4.55;;
64199;SDS011;50516;52.272;5.136;2023-04-25T02:34:20;19.17;;;4.82;;
64199;SDS011;50516;52.272;5.136;2023-04-25T02:36:46;10.70;;;3.85;;
64199;SDS011;50516;52.272;5.136;2023-04-25T02:39:12;14.70;;;4.40;;
64199;SDS011;50516;52.272;5.136;2023-04-25T02:41:37;21.35;;;4.35;;
64199;SDS011;50516;52.272;5.136;2023-04-25T02:44:03;13.30;;;3.40;;
64199;SDS011;50516;52.272;5.136;2023-04-25T02:46:28;13.68;;;4.88;;
64199;SDS011;50516;52.272;5.136;2023-04-25T02:48:53;13.73;;;4.03;;
64199;SDS011;50516;52.272;5.136;2023-04-25T02:51:19;15.70;;;4.25;;
64199;SDS011;50516;52.272;5.136;2023-04-25T02:53:44;19.83;;;4.45;;
64199;SDS011;50516;52.272;5.136;2023-04-25T02:56:09;20.88;;;3.85;;
64199;SDS011;50516;52.272;5.136;2023-04-25T02:58:34;14.30;;;4.05;;
64199;SDS011;50516;52.272;5.136;2023-04-25T03:01:00;13.27;;;4.30;;
64199;SDS011;50516;52.272;5.136;2023-04-25T03:03:25;21.38;;;4.13;;
64199;SDS011;50516;52.272;5.136;2023-04-25T03:05:51;17.20;;;4.40;;
64199;SDS011;50516;52.272;5.136;2023-04-25T03:08:16;14.27;;;3.38;;
64199;SDS011;50516;52.272;5.136;2023-04-25T03:10:43;14.98;;;3.83;;
64199;SDS011;50516;52.272;5.136;2023-04-25T03:13:08;15.75;;;3.58;;
64199;SDS011;50516;52.272;5.136;2023-04-25T03:15:34;15.27;;;4.05;;
64199;SDS011;50516;52.272;5.136;2023-04-25T03:18:00;11.10;;;3.15;;
64199;SDS011;50516;52.272;5.136;2023-04-25T03:20:25;21.13;;;3.35;;
64199;SDS011;50516;52.272;5.136;2023-04-25T03:22:52;12.93;;;4.03;;
64199;SDS011;50516;52.272;5.136;2023-04-25T03:25:18;8.43;;;3.15;;
64199;SDS011;50516;52.272;5.136;2023-04-25T03:27:44;8.63;;;3.17;;
64199;SDS011;50516;52.272;5.136;2023-04-25T03:30:10;13.27;;;3.72;;
64199;SDS011;50516;52.272;5.136;2023-04-25T03:32:37;20.85;;;3.83;;
64199;SDS011;50516;52.272;5.136;2023-04-25T03:35:03;13.38;;;3.30;;
64199;SDS011;50516;52.272;5.136;2023-04-25T03:37:30;10.00;;;2.85;;
64199;SDS011;50516;52.272;5.136;2023-04-25T03:39:56;19.92;;;4.50;;
64199;SDS011;50516;52.272;5.136;2023-04-25T03:42:21;12.65;;;3.40;;
64199;SDS011;50516;52.272;5.136;2023-04-25T03:44:48;17.95;;;3.97;;
64199;SDS011;50516;52.272;5.136;2023-04-25T03:47:14;11.98;;;4.25;;
64199;SDS011;50516;52.272;5.136;2023-04-25T03:49:41;9.45;;;3.03;;
64199;SDS011;50516;52.272;5.136;2023-04-25T03:52:07;15.23;;;3.67;;
64199;SDS011;50516;52.272;5.136;2023-04-25T03:54:32;13.07;;;3.20;;
64199;SDS011;50516;52.272;5.136;2023-04-25T03:56:58;14.88;;;3.30;;
64199;SDS011;50516;52.272;5.136;2023-04-25T03:59:24;10.45;;;3.13;;
64199;SDS011;50516;52.272;5.136;2023-04-25T04:01:51;17.75;;;3.38;;
64199;SDS011;50516;52.272;5.136;2023-04-25T04:04:17;25.65;;;5.10;;
64199;SDS011;50516;52.272;5.136;2023-04-25T04:06:43;15.60;;;3.58;;
64199;SDS011;50516;52.272;5.136;2023-04-25T04:09:09;16.92;;;3.88;;
64199;SDS011;50516;52.272;5.136;2023-04-25T04:11:36;19.85;;;5.30;;
64199;SDS011;50516;52.272;5.136;2023-04-25T04:14:03;14.10;;;4.28;;
64199;SDS011;50516;52.272;5.136;2023-04-25T04:16:31;12.13;;;2.60;;
64199;SDS011;50516;52.272;5.136;2023-04-25T04:18:57;13.27;;;3.33;;
64199;SDS011;50516;52.272;5.136;2023-04-25T04:21:22;16.52;;;4.18;;
64199;SDS011;50516;52.272;5.136;2023-04-25T04:23:48;8.60;;;2.75;;
64199;SDS011;50516;52.272;5.136;2023-04-25T04:26:14;9.65;;;3.20;;
64199;SDS011;50516;52.272;5.136;2023-04-25T04:28:43;12.25;;;3.15;;
64199;SDS011;50516;52.272;5.136;2023-04-25T04:31:12;9.77;;;3.13;;
64199;SDS011;50516;52.272;5.136;2023-04-25T04:33:37;9.63;;;3.20;;
64199;SDS011;50516;52.272;5.136;2023-04-25T04:36:03;11.68;;;3.03;;
64199;SDS011;50516;52.272;5.136;2023-04-25T04:38:29;11.27;;;3.63;;
64199;SDS011;50516;52.272;5.136;2023-04-25T04:40:56;18.63;;;4.07;;
64199;SDS011;50516;52.272;5.136;2023-04-25T04:43:22;12.32;;;4.10;;
64199;SDS011;50516;52.272;5.136;2023-04-25T04:45:48;7.60;;;2.42;;
64199;SDS011;50516;52.272;5.136;2023-04-25T04:48:14;11.05;;;2.60;;
64199;SDS011;50516;52.272;5.136;2023-04-25T04:50:39;14.77;;;3.22;;
64199;SDS011;50516;52.272;5.136;2023-04-25T04:53:06;8.05;;;2.45;;
64199;SDS011;50516;52.272;5.136;2023-04-25T04:55:31;6.25;;;2.17;;
64199;SDS011;50516;52.272;5.136;2023-04-25T04:57:57;7.22;;;2.72;;
64199;SDS011;50516;52.272;5.136;2023-04-25T05:00:23;10.95;;;2.63;;
64199;SDS011;50516;52.272;5.136;2023-04-25T05:02:48;5.88;;;2.38;;
64199;SDS011;50516;52.272;5.136;2023-04-25T05:05:14;15.10;;;4.05;;
64199;SDS011;50516;52.272;5.136;2023-04-25T05:07:40;10.68;;;2.70;;
64199;SDS011;50516;52.272;5.136;2023-04-25T05:10:05;11.48;;;3.38;;
64199;SDS011;50516;52.272;5.136;2023-04-25T05:12:31;14.60;;;2.92;;
64199;SDS011;50516;52.272;5.136;2023-04-25T05:14:56;6.40;;;2.40;;
64199;SDS011;50516;52.272;5.136;2023-04-25T05:17:22;11.65;;;2.20;;
64199;SDS011;50516;52.272;5.136;2023-04-25T05:19:47;10.25;;;2.72;;
64199;SDS011;50516;52.272;5.136;2023-04-25T05:22:13;17.45;;;3.92;;
64199;SDS011;50516;52.272;5.136;2023-04-25T05:24:38;13.80;;;3.65;;
64199;SDS011;50516;52.272;5.136;2023-04-25T05:27:04;8.43;;;2.95;;
64199;SDS011;50516;52.272;5.136;2023-04-25T05:29:30;9.20;;;2.92;;
64199;SDS011;50516;52.272;5.136;2023-04-25T05:31:56;16.42;;;3.15;;
64199;SDS011;50516;52.272;5.136;2023-04-25T05:34:21;7.97;;;2.75;;
64199;SDS011;50516;52.272;5.136;2023-04-25T05:36:47;9.85;;;3.22;;
64199;SDS011;50516;52.272;5.136;2023-04-25T05:39:18;11.98;;;2.60;;
64199;SDS011;50516;52.272;5.136;2023-04-25T05:41:43;9.57;;;2.92;;
64199;SDS011;50516;52.272;5.136;2023-04-25T05:44:09;15.05;;;3.22;;
64199;SDS011;50516;52.272;5.136;2023-04-25T05:46:35;9.27;;;2.47;;
64199;SDS011;50516;52.272;5.136;2023-04-25T05:49:03;12.27;;;3.05;;
64199;SDS011;50516;52.272;5.136;2023-04-25T05:51:38;11.75;;;2.90;;
64199;SDS011;50516;52.272;5.136;2023-04-25T05:54:06;12.75;;;2.72;;
64199;SDS011;50516;52.272;5.136;2023-04-25T05:56:36;9.85;;;3.15;;
64199;SDS011;50516;52.272;5.136;2023-04-25T05:59:07;10.82;;;2.60;;
64199;SDS011;50516;52.272;5.136;2023-04-25T06:01:39;15.75;;;4.15;;
64199;SDS011;50516;52.272;5.136;2023-04-25T06:04:05;13.23;;;2.80;;
64199;SDS011;50516;52.272;5.136;2023-04-25T06:06:33;14.13;;;3.13;;
64199;SDS011;50516;52.272;5.136;2023-04-25T06:08:58;8.85;;;2.28;;
64199;SDS011;50516;52.272;5.136;2023-04-25T06:11:24;13.35;;;3.38;;
64199;SDS011;50516;52.272;5.136;2023-04-25T06:13:50;11.32;;;3.78;;
64199;SDS011;50516;52.272;5.136;2023-04-25T06:16:15;14.98;;;2.90;;
64199;SDS011;50516;52.272;5.136;2023-04-25T06:18:41;8.13;;;3.00;;
64199;SDS011;50516;52.272;5.136;2023-04-25T06:21:06;10.35;;;2.50;;
64199;SDS011;50516;52.272;5.136;2023-04-25T06:23:32;11.50;;;3.10;;
64199;SDS011;50516;52.272;5.136;2023-04-25T06:25:57;5.35;;;2.35;;
64199;SDS011;50516;52.272;5.136;2023-04-25T06:28:23;12.23;;;3.78;;
64199;SDS011;50516;52.272;5.136;2023-04-25T06:30:49;14.73;;;2.97;;
64199;SDS011;50516;52.272;5.136;2023-04-25T06:33:15;11.10;;;3.15;;
64199;SDS011;50516;52.272;5.136;2023-04-25T06:35:40;15.93;;;2.72;;
64199;SDS011;50516;52.272;5.136;2023-04-25T06:38:06;10.00;;;3.25;;
64199;SDS011;50516;52.272;5.136;2023-04-25T06:40:32;14.55;;;3.40;;
64199;SDS011;50516;52.272;5.136;2023-04-25T06:42:57;14.77;;;4.13;;
64199;SDS011;50516;52.272;5.136;2023-04-25T06:45:23;13.98;;;3.13;;
64199;SDS011;50516;52.272;5.136;2023-04-25T06:47:48;17.05;;;3.50;;
64199;SDS011;50516;52.272;5.136;2023-04-25T06:50:14;13.45;;;3.30;;
64199;SDS011;50516;52.272;5.136;2023-04-25T06:52:39;10.45;;;3.42;;
64199;SDS011;50516;52.272;5.136;2023-04-25T06:55:05;9.43;;;3.78;;
64199;SDS011;50516;52.272;5.136;2023-04-25T06:57:31;15.48;;;3.95;;
64199;SDS011;50516;52.272;5.136;2023-04-25T06:59:56;14.15;;;3.22;;
64199;SDS011;50516;52.272;5.136;2023-04-25T07:02:21;13.70;;;3.38;;
64199;SDS011;50516;52.272;5.136;2023-04-25T07:04:47;15.38;;;2.97;;
64199;SDS011;50516;52.272;5.136;2023-04-25T07:07:12;10.60;;;2.88;;
64199;SDS011;50516;52.272;5.136;2023-04-25T07:09:38;16.40;;;3.28;;
64199;SDS011;50516;52.272;5.136;2023-04-25T07:12:03;11.77;;;2.90;;
64199;SDS011;50516;52.272;5.136;2023-04-25T07:14:29;11.00;;;3.03;;
64199;SDS011;50516;52.272;5.136;2023-04-25T07:16:54;18.15;;;3.75;;
64199;SDS011;50516;52.272;5.136;2023-04-25T07:19:21;13.70;;;2.97;;
64199;SDS011;50516;52.272;5.136;2023-04-25T07:21:48;14.25;;;3.83;;
64199;SDS011;50516;52.272;5.136;2023-04-25T07:24:14;14.80;;;3.00;;
64199;SDS011;50516;52.272;5.136;2023-04-25T07:26:39;12.15;;;2.75;;
64199;SDS011;50516;52.272;5.136;2023-04-25T07:29:05;11.85;;;2.97;;
64199;SDS011;50516;52.272;5.136;2023-04-25T07:31:30;21.90;;;4.70;;
64199;SDS011;50516;52.272;5.136;2023-04-25T07:33:55;16.13;;;4.25;;
64199;SDS011;50516;52.272;5.136;2023-04-25T07:36:21;9.27;;;2.40;;
64199;SDS011;50516;52.272;5.136;2023-04-25T07:38:47;15.30;;;3.03;;
64199;SDS011;50516;52.272;5.136;2023-04-25T07:41:12;10.68;;;3.10;;
64199;SDS011;50516;52.272;5.136;2023-04-25T07:43:37;9.23;;;3.03;;
64199;SDS011;50516;52.272;5.136;2023-04-25T07:46:03;15.02;;;3.08;;
64199;SDS011;50516;52.272;5.136;2023-04-25T07:48:29;11.30;;;3.20;;
64199;SDS011;50516;52.272;5.136;2023-04-25T07:50:54;10.07;;;2.67;;
64199;SDS011;50516;52.272;5.136;2023-04-25T07:53:19;10.32;;;3.00;;
64199;SDS011;50516;52.272;5.136;2023-04-25T07:55:45;15.32;;;3.47;;
64199;SDS011;50516;52.272;5.136;2023-04-25T07:58:10;16.02;;;3.47;;
64199;SDS011;50516;52.272;5.136;2023-04-25T08:00:36;13.50;;;3.70;;
64199;SDS011;50516;52.272;5.136;2023-04-25T08:03:02;10.02;;;2.70;;
64199;SDS011;50516;52.272;5.136;2023-04-25T08:05:28;10.65;;;2.97;;
64199;SDS011;50516;52.272;5.136;2023-04-25T08:07:54;12.60;;;3.40;;
64199;SDS011;50516;52.272;5.136;2023-04-25T08:10:21;11.80;;;3.20;;
64199;SDS011;50516;52.272;5.136;2023-04-25T08:12:48;15.05;;;2.70;;
64199;SDS011;50516;52.272;5.136;2023-04-25T08:15:13;12.05;;;3.03;;
64199;SDS011;50516;52.272;5.136;2023-04-25T08:17:39;16.85;;;3.03;;
64199;SDS011;50516;52.272;5.136;2023-04-25T08:20:05;13.68;;;3.00;;
64199;SDS011;50516;52.272;5.136;2023-04-25T08:22:31;13.95;;;3.45;;
64199;SDS011;50516;52.272;5.136;2023-04-25T08:24:56;9.88;;;2.90;;
64199;SDS011;50516;52.272;5.136;2023-04-25T08:27:22;6.78;;;2.65;;
64199;SDS011;50516;52.272;5.136;2023-04-25T08:29:48;8.38;;;2.05;;
64199;SDS011;50516;52.272;5.136;2023-04-25T08:32:15;9.93;;;2.50;;
64199;SDS011;50516;52.272;5.136;2023-04-25T08:34:40;9.68;;;2.35;;
64199;SDS011;50516;52.272;5.136;2023-04-25T08:37:07;9.27;;;2.67;;
64199;SDS011;50516;52.272;5.136;2023-04-25T08:39:34;14.32;;;2.65;;
64199;SDS011;50516;52.272;5.136;2023-04-25T08:42:00;10.80;;;2.67;;
64199;SDS011;50516;52.272;5.136;2023-04-25T08:44:33;7.07;;;2.95;;
64199;SDS011;50516;52.272;5.136;2023-04-25T08:46:58;9.27;;;2.75;;
64199;SDS011;50516;52.272;5.136;2023-04-25T08:49:24;8.48;;;2.53;;
64199;SDS011;50516;52.272;5.136;2023-04-25T08:51:50;16.75;;;3.38;;
64199;SDS011;50516;52.272;5.136;2023-04-25T08:54:18;9.25;;;2.88;;
64199;SDS011;50516;52.272;5.136;2023-04-25T08:56:47;10.80;;;2.90;;
64199;SDS011;50516;52.272;5.136;2023-04-25T08:59:13;9.00;;;2.30;;
64199;SDS011;50516;52.272;5.136;2023-04-25T09:01:39;9.23;;;2.65;;
64199;SDS011;50516;52.272;5.136;2023-04-25T09:04:05;7.72;;;2.42;;
64199;SDS011;50516;52.272;5.136;2023-04-25T09:06:30;18.30;;;2.90;;
64199;SDS011;50516;52.272;5.136;2023-04-25T09:09:06;13.05;;;3.42;;
64199;SDS011;50516;52.272;5.136;2023-04-25T09:11:33;6.65;;;2.35;;
64199;SDS011;50516;52.272;5.136;2023-04-25T09:14:12;7.18;;;2.20;;
64199;SDS011;50516;52.272;5.136;2023-04-25T09:19:22;4.82;;;2.10;;
64199;SDS011;50516;52.272;5.136;2023-04-25T09:21:58;9.73;;;2.17;;
64199;SDS011;50516;52.272;5.136;2023-04-25T09:27:04;6.55;;;2.00;;
64199;SDS011;50516;52.272;5.136;2023-04-25T09:29:37;9.52;;;3.15;;
64199;SDS011;50516;52.272;5.136;2023-04-25T09:34:46;8.52;;;1.80;;
64199;SDS011;50516;52.272;5.136;2023-04-25T09:37:16;6.90;;;2.30;;
64199;SDS011;50516;52.272;5.136;2023-04-25T09:39:44;8.55;;;2.35;;
64199;SDS011;50516;52.272;5.136;2023-04-25T09:42:12;12.50;;;2.70;;
64199;SDS011;50516;52.272;5.136;2023-04-25T09:44:41;12.38;;;2.30;;
64199;SDS011;50516;52.272;5.136;2023-04-25T09:47:17;6.85;;;1.92;;
64199;SDS011;50516;52.272;5.136;2023-04-25T09:49:43;9.93;;;2.30;;
64199;SDS011;50516;52.272;5.136;2023-04-25T09:52:09;11.18;;;2.53;;
64199;SDS011;50516;52.272;5.136;2023-04-25T09:54:39;11.38;;;2.78;;
64199;SDS011;50516;52.272;5.136;2023-04-25T09:57:18;9.20;;;2.28;;
64199;SDS011;50516;52.272;5.136;2023-04-25T09:59:54;9.77;;;2.72;;
64199;SDS011;50516;52.272;5.136;2023-04-25T10:02:21;9.82;;;2.35;;
64199;SDS011;50516;52.272;5.136;2023-04-25T10:04:49;5.93;;;2.28;;
64199;SDS011;50516;52.272;5.136;2023-04-25T10:07:18;8.35;;;2.60;;
64199;SDS011;50516;52.272;5.136;2023-04-25T10:09:45;7.40;;;2.83;;
64199;SDS011;50516;52.272;5.136;2023-04-25T10:12:13;8.25;;;2.05;;
64199;SDS011;50516;52.272;5.136;2023-04-25T10:14:38;7.80;;;2.15;;
64199;SDS011;50516;52.272;5.136;2023-04-25T10:17:05;9.85;;;2.58;;
64199;SDS011;50516;52.272;5.136;2023-04-25T10:19:31;9.07;;;2.30;;
64199;SDS011;50516;52.272;5.136;2023-04-25T10:22:00;12.02;;;2.53;;
64199;SDS011;50516;52.272;5.136;2023-04-25T10:24:30;8.30;;;2.75;;
64199;SDS011;50516;52.272;5.136;2023-04-25T10:26:56;8.98;;;2.33;;
64199;SDS011;50516;52.272;5.136;2023-04-25T10:29:23;8.68;;;2.55;;
64199;SDS011;50516;52.272;5.136;2023-04-25T10:31:49;6.47;;;2.13;;
64199;SDS011;50516;52.272;5.136;2023-04-25T10:34:15;5.78;;;2.03;;
64199;SDS011;50516;52.272;5.136;2023-04-25T10:36:41;6.18;;;2.50;;
64199;SDS011;50516;52.272;5.136;2023-04-25T10:39:07;5.60;;;2.13;;
64199;SDS011;50516;52.272;5.136;2023-04-25T10:41:45;7.88;;;2.40;;
64199;SDS011;50516;52.272;5.136;2023-04-25T10:44:12;5.68;;;2.10;;
64199;SDS011;50516;52.272;5.136;2023-04-25T10:46:39;8.65;;;2.30;;
64199;SDS011;50516;52.272;5.136;2023-04-25T10:49:04;7.95;;;3.08;;
64199;SDS011;50516;52.272;5.136;2023-04-25T10:51:33;7.18;;;2.05;;
64199;SDS011;50516;52.272;5.136;2023-04-25T10:54:01;4.93;;;2.42;;
64199;SDS011;50516;52.272;5.136;2023-04-25T10:56:31;7.18;;;2.00;;
64199;SDS011;50516;52.272;5.136;2023-04-25T10:59:17;5.15;;;1.83;;
64199;SDS011;50516;52.272;5.136;2023-04-25T11:01:44;4.55;;;1.88;;
64199;SDS011;50516;52.272;5.136;2023-04-25T11:04:31;5.32;;;2.35;;
64199;SDS011;50516;52.272;5.136;2023-04-25T11:09:30;5.65;;;1.80;;
64199;SDS011;50516;52.272;5.136;2023-04-25T11:11:58;14.95;;;2.67;;
64199;SDS011;50516;52.272;5.136;2023-04-25T11:14:25;4.47;;;2.08;;
64199;SDS011;50516;52.272;5.136;2023-04-25T11:16:53;9.48;;;2.85;;
64199;SDS011;50516;52.272;5.136;2023-04-25T11:19:23;7.00;;;2.70;;
64199;SDS011;50516;52.272;5.136;2023-04-25T11:21:49;15.07;;;3.05;;
64199;SDS011;50516;52.272;5.136;2023-04-25T11:24:17;9.98;;;2.63;;
64199;SDS011;50516;52.272;5.136;2023-04-25T11:26:43;9.73;;;2.65;;
64199;SDS011;50516;52.272;5.136;2023-04-25T11:29:12;4.85;;;1.73;;
64199;SDS011;50516;52.272;5.136;2023-04-25T11:31:37;4.78;;;2.05;;
64199;SDS011;50516;52.272;5.136;2023-04-25T11:34:03;8.48;;;2.10;;
64199;SDS011;50516;52.272;5.136;2023-04-25T11:36:28;6.10;;;2.10;;
64199;SDS011;50516;52.272;5.136;2023-04-25T11:38:55;10.15;;;2.15;;
64199;SDS011;50516;52.272;5.136;2023-04-25T11:41:21;5.47;;;1.65;;
64199;SDS011;50516;52.272;5.136;2023-04-25T11:43:47;9.32;;;2.05;;
64199;SDS011;50516;52.272;5.136;2023-04-25T11:46:13;5.45;;;2.08;;
64199;SDS011;50516;52.272;5.136;2023-04-25T11:48:39;6.57;;;2.30;;
64199;SDS011;50516;52.272;5.136;2023-04-25T11:51:07;7.60;;;2.30;;
64199;SDS011;50516;52.272;5.136;2023-04-25T11:53:32;8.48;;;2.67;;
64199;SDS011;50516;52.272;5.136;2023-04-25T11:55:58;10.27;;;2.60;;
64199;SDS011;50516;52.272;5.136;2023-04-25T11:58:24;8.05;;;2.53;;
64199;SDS011;50516;52.272;5.136;2023-04-25T12:00:50;7.50;;;2.58;;
64199;SDS011;50516;52.272;5.136;2023-04-25T12:03:17;7.47;;;2.60;;
64199;SDS011;50516;52.272;5.136;2023-04-25T12:05:43;6.40;;;2.88;;
64199;SDS011;50516;52.272;5.136;2023-04-25T12:08:15;7.43;;;2.03;;
64199;SDS011;50516;52.272;5.136;2023-04-25T12:10:42;5.40;;;1.90;;
64199;SDS011;50516;52.272;5.136;2023-04-25T12:13:20;5.95;;;2.22;;
64199;SDS011;50516;52.272;5.136;2023-04-25T12:15:46;7.72;;;2.50;;
64199;SDS011;50516;52.272;5.136;2023-04-25T12:18:11;4.65;;;2.15;;
64199;SDS011;50516;52.272;5.136;2023-04-25T12:20:37;9.18;;;2.33;;
64199;SDS011;50516;52.272;5.136;2023-04-25T12:23:05;7.30;;;2.40;;
64199;SDS011;50516;52.272;5.136;2023-04-25T12:25:39;6.38;;;2.00;;
64199;SDS011;50516;52.272;5.136;2023-04-25T12:28:17;6.03;;;2.38;;
64199;SDS011;50516;52.272;5.136;2023-04-25T12:33:19;7.97;;;2.30;;
64199;SDS011;50516;52.272;5.136;2023-04-25T12:35:46;6.75;;;2.47;;
64199;SDS011;50516;52.272;5.136;2023-04-25T12:38:11;6.38;;;1.75;;
64199;SDS011;50516;52.272;5.136;2023-04-25T12:40:45;5.50;;;1.85;;
64199;SDS011;50516;52.272;5.136;2023-04-25T12:43:10;5.63;;;1.83;;
64199;SDS011;50516;52.272;5.136;2023-04-25T12:45:35;5.68;;;1.80;;
64199;SDS011;50516;52.272;5.136;2023-04-25T12:48:01;8.55;;;2.85;;
64199;SDS011;50516;52.272;5.136;2023-04-25T12:50:26;7.32;;;2.20;;
64199;SDS011;50516;52.272;5.136;2023-04-25T12:52:51;7.68;;;2.03;;
64199;SDS011;50516;52.272;5.136;2023-04-25T12:55:17;7.55;;;2.30;;
64199;SDS011;50516;52.272;5.136;2023-04-25T12:57:42;6.28;;;2.20;;
64199;SDS011;50516;52.272;5.136;2023-04-25T13:00:08;5.88;;;3.00;;
64199;SDS011;50516;52.272;5.136;2023-04-25T13:02:39;2.60;;;1.80;;
64199;SDS011;50516;52.272;5.136;2023-04-25T13:05:05;8.25;;;2.90;;
64199;SDS011;50516;52.272;5.136;2023-04-25T13:07:30;6.40;;;2.58;;
64199;SDS011;50516;52.272;5.136;2023-04-25T13:09:56;5.88;;;1.95;;
64199;SDS011;50516;52.272;5.136;2023-04-25T13:12:21;11.07;;;2.50;;
64199;SDS011;50516;52.272;5.136;2023-04-25T13:14:46;7.50;;;2.67;;
64199;SDS011;50516;52.272;5.136;2023-04-25T13:17:12;6.95;;;2.28;;
64199;SDS011;50516;52.272;5.136;2023-04-25T13:19:37;7.65;;;2.80;;
64199;SDS011;50516;52.272;5.136;2023-04-25T13:22:03;7.35;;;2.30;;
64199;SDS011;50516;52.272;5.136;2023-04-25T13:24:29;5.22;;;2.60;;
64199;SDS011;50516;52.272;5.136;2023-04-25T13:26:54;9.30;;;2.35;;
64199;SDS011;50516;52.272;5.136;2023-04-25T13:29:20;6.50;;;2.40;;
64199;SDS011;50516;52.272;5.136;2023-04-25T13:31:45;8.75;;;3.25;;
64199;SDS011;50516;52.272;5.136;2023-04-25T13:34:11;8.70;;;2.63;;
64199;SDS011;50516;52.272;5.136;2023-04-25T13:36:37;7.40;;;2.08;;
64199;SDS011;50516;52.272;5.136;2023-04-25T13:39:03;6.85;;;2.38;;
64199;SDS011;50516;52.272;5.136;2023-04-25T13:41:30;6.82;;;2.05;;
64199;SDS011;50516;52.272;5.136;2023-04-25T13:43:55;8.73;;;2.55;;
64199;SDS011;50516;52.272;5.136;2023-04-25T13:46:20;10.07;;;2.90;;
64199;SDS011;50516;52.272;5.136;2023-04-25T13:48:46;13.32;;;2.95;;
64199;SDS011;50516;52.272;5.136;2023-04-25T13:51:13;10.27;;;2.88;;
64199;SDS011;50516;52.272;5.136;2023-04-25T13:53:40;9.25;;;2.22;;
64199;SDS011;50516;52.272;5.136;2023-04-25T13:56:06;11.88;;;3.70;;
64199;SDS011;50516;52.272;5.136;2023-04-25T13:58:31;7.03;;;2.35;;
64199;SDS011;50516;52.272;5.136;2023-04-25T14:00:57;7.32;;;2.58;;
64199;SDS011;50516;52.272;5.136;2023-04-25T14:03:23;6.80;;;2.33;;
64199;SDS011;50516;52.272;5.136;2023-04-25T14:05:48;8.43;;;3.53;;
64199;SDS011;50516;52.272;5.136;2023-04-25T14:08:14;4.03;;;1.80;;
64199;SDS011;50516;52.272;5.136;2023-04-25T14:10:39;7.70;;;2.65;;
64199;SDS011;50516;52.272;5.136;2023-04-25T14:13:07;6.90;;;2.30;;
64199;SDS011;50516;52.272;5.136;2023-04-25T14:15:33;4.70;;;2.35;;
64199;SDS011;50516;52.272;5.136;2023-04-25T14:17:59;6.95;;;2.10;;
64199;SDS011;50516;52.272;5.136;2023-04-25T14:20:27;7.22;;;2.50;;
64199;SDS011;50516;52.272;5.136;2023-04-25T14:22:53;8.35;;;2.22;;
64199;SDS011;50516;52.272;5.136;2023-04-25T14:25:21;7.53;;;2.63;;
64199;SDS011;50516;52.272;5.136;2023-04-25T14:27:46;8.27;;;2.20;;
64199;SDS011;50516;52.272;5.136;2023-04-25T14:30:15;8.10;;;2.50;;
64199;SDS011;50516;52.272;5.136;2023-04-25T14:32:44;7.43;;;3.10;;
64199;SDS011;50516;52.272;5.136;2023-04-25T14:35:10;6.15;;;2.30;;
64199;SDS011;50516;52.272;5.136;2023-04-25T14:37:36;8.80;;;2.35;;
64199;SDS011;50516;52.272;5.136;2023-04-25T14:40:02;6.82;;;2.63;;
64199;SDS011;50516;52.272;5.136;2023-04-25T14:42:28;4.45;;;1.73;;
64199;SDS011;50516;52.272;5.136;2023-04-25T14:44:53;4.90;;;2.28;;
64199;SDS011;50516;52.272;5.136;2023-04-25T14:47:19;6.38;;;2.15;;
64199;SDS011;50516;52.272;5.136;2023-04-25T14:49:44;6.85;;;2.17;;